Latest Weather Observations for Frankston

IDV60901

Issued at 10:51 pm EST Thursday 2 July 2020 (issued every 10 minutes, with the page automatically refreshed every 10 minutes)

About weather observations | Map of Melbourne area stations | Latest observations for Melbourne area | Other Formats
Station Details ID: 086371 Name: FRANKSTON BEACH Lat: -38.15 Lon: 145.12 Height: 6.0 m
Data from the previous 72 hours. | See also: Recent months at Frankston
Date/Time
EST
Temp
°C
App
Temp
°C
Dew
Point
°C
Rel
Hum
%
Delta-T
°C
Wind Press
QNH
hPa
Press
MSL
hPa
Rain since
9am
mm
Dir  Spd
km/h
Gust
km/h
Spd
kts
Gust
kts
02/10:30pm - - - - - NNW 33 41 18 22 - - -
02/10:00pm - - - - - NNW 33 41 18 22 - - -
02/09:30pm - - - - - NNW 32 39 17 21 - - -
02/09:00pm - - - - - NNW 32 41 17 22 - - -
02/08:30pm - - - - - NNW 32 39 17 21 - - -
02/08:00pm - - - - - NNW 30 33 16 18 - - -
02/07:30pm - - - - - N 28 35 15 19 - - -
02/07:00pm - - - - - N 24 30 13 16 - - -
02/06:30pm - - - - - NNW 26 32 14 17 - - -
02/06:00pm - - - - - NW 19 26 10 14 - - -
02/05:30pm - - - - - NW 22 28 12 15 - - -
02/05:00pm - - - - - NW 24 30 13 16 - - -
02/04:30pm - - - - - NW 24 28 13 15 - - -
02/04:00pm - - - - - NW 24 28 13 15 - - -
02/03:30pm - - - - - WNW 24 30 13 16 - - -
02/03:00pm - - - - - NW 28 35 15 19 - - -
02/02:30pm - - - - - NW 26 30 14 16 - - -
02/02:00pm - - - - - WNW 26 30 14 16 - - -
02/01:30pm - - - - - NW 26 30 14 16 - - -
02/01:00pm - - - - - NW 26 32 14 17 - - -
02/12:30pm - - - - - NW 28 33 15 18 - - -
02/12:00pm - - - - - NW 32 35 17 19 - - -
02/11:30am - - - - - NW 30 35 16 19 - - -
02/11:00am - - - - - NW 32 37 17 20 - - -
02/10:30am - - - - - NNW 30 37 16 20 - - -
02/10:00am - - - - - NNW 28 33 15 18 - - -
02/09:30am - - - - - NNW 30 35 16 19 - - -
02/09:00am - - - - - NNW 32 37 17 20 - - -
02/08:30am - - - - - NW 28 33 15 18 - - -
02/08:00am - - - - - NW 28 35 15 19 - - -
02/07:30am - - - - - NNW 30 39 16 21 - - -
02/07:00am - - - - - NNW 30 39 16 21 - - -
02/06:30am - - - - - NNW 28 33 15 18 - - -
02/06:00am - - - - - NNW 28 33 15 18 - - -
02/05:30am - - - - - NNW 33 39 18 21 - - -
02/05:00am - - - - - NNW 30 35 16 19 - - -
02/04:30am - - - - - NNW 30 37 16 20 - - -
02/04:00am - - - - - NNW 30 37 16 20 - - -
02/03:30am - - - - - NNW 32 37 17 20 - - -
02/03:00am - - - - - NNW 35 43 19 23 - - -
02/02:30am - - - - - NNW 37 46 20 25 - - -
02/02:27am - - - - - NNW 37 46 20 25 - - -
02/02:00am - - - - - NW 30 37 16 20 - - -
02/01:00am - - - - - WNW 46 61 25 33 - - -
02/12:54am - - - - - NW 37 61 20 33 - - -
02/12:53am - - - - - NNW 35 61 19 33 - - -
02/12:30am - - - - - NW 33 39 18 21 - - -
02/12:00am - - - - - NNW 22 28 12 15 - - -
 
Date/Time
EST
Temp
°C
App
Temp
°C
Dew
Point
°C
Rel
Hum
%
Delta-T
°C
Wind Press
QNH
hPa
Press
MSL
hPa
Rain since
9am
mm
Dir  Spd
km/h
Gust
km/h
Spd
kts
Gust
kts
01/11:30pm - - - - - NNE 24 30 13 16 - - -
01/11:00pm - - - - - NNW 17 24 9 13 - - -
01/10:30pm - - - - - N 33 48 18 26 - - -
01/10:01pm - - - - - NNE 35 54 19 29 - - -
01/10:00pm - - - - - NNE 33 50 18 27 - - -
01/09:35pm - - - - - NNE 28 48 15 26 - - -
01/09:30pm - - - - - NE 20 37 11 20 - - -
01/09:00pm - - - - - NE 20 32 11 17 - - -
01/08:30pm - - - - - NE 19 33 10 18 - - -
01/08:00pm - - - - - NNE 19 33 10 18 - - -
01/07:30pm - - - - - NNE 22 37 12 20 - - -
01/07:00pm - - - - - NE 20 33 11 18 - - -
01/06:30pm - - - - - NE 17 26 9 14 - - -
01/06:00pm - - - - - NNE 19 26 10 14 - - -
01/05:30pm - - - - - NNE 22 32 12 17 - - -
01/05:00pm - - - - - NNE 19 28 10 15 - - -
01/04:30pm - - - - - N 30 35 16 19 - - -
01/04:00pm - - - - - N 24 32 13 17 - - -
01/03:30pm - - - - - N 22 28 12 15 - - -
01/03:00pm - - - - - N 26 33 14 18 - - -
01/02:30pm - - - - - N 32 39 17 21 - - -
01/02:00pm - - - - - N 20 32 11 17 - - -
01/01:30pm - - - - - NNW 7 11 4 6 - - -
01/01:00pm - - - - - N 11 19 6 10 - - -
01/12:30pm - - - - - N 13 17 7 9 - - -
01/12:00pm - - - - - N 11 15 6 8 - - -
01/11:30am - - - - - CALM 0 0 0 0 - - -
01/11:00am - - - - - NW 4 7 2 4 - - -
01/10:30am - - - - - N 7 9 4 5 - - -
01/10:00am - - - - - NNE 11 13 6 7 - - -
01/09:30am - - - - - NNE 9 11 5 6 - - -
01/09:00am - - - - - NE 7 9 4 5 - - -
01/08:30am - - - - - CALM 0 2 0 1 - - -
01/08:00am - - - - - N 9 13 5 7 - - -
01/07:30am - - - - - NNW 13 15 7 8 - - -
01/07:00am - - - - - CALM 0 6 0 3 - - -
01/06:30am - - - - - NNW 4 7 2 4 - - -
01/06:00am - - - - - NNW 11 13 6 7 - - -
01/05:30am - - - - - WSW 11 15 6 8 - - -
01/05:00am - - - - - WSW 6 9 3 5 - - -
01/04:30am - - - - - NNW 9 17 5 9 - - -
01/04:00am - - - - - WNW 4 9 2 5 - - -
01/03:30am - - - - - SSW 2 7 1 4 - - -
01/03:00am - - - - - ESE 6 11 3 6 - - -
01/02:30am - - - - - SSE 9 13 5 7 - - -
01/02:00am - - - - - N 13 15 7 8 - - -
01/01:30am - - - - - NNE 11 13 6 7 - - -
01/01:00am - - - - - NE 7 7 4 4 - - -
01/12:30am - - - - - NE 9 11 5 6 - - -
01/12:00am - - - - - NE 9 11 5 6 - - -
 
Date/Time
EST
Temp
°C
App
Temp
°C
Dew
Point
°C
Rel
Hum
%
Delta-T
°C
Wind Press
QNH
hPa
Press
MSL
hPa
Rain since
9am
mm
Dir  Spd
km/h
Gust
km/h
Spd
kts
Gust
kts
30/11:30pm - - - - - N 6 7 3 4 - - -
30/11:00pm - - - - - NW 6 9 3 5 - - -
30/10:30pm - - - - - NNW 11 13 6 7 - - -
30/10:00pm - - - - - NW 11 13 6 7 - - -
30/09:30pm - - - - - NNW 15 19 8 10 - - -
30/09:00pm - - - - - NW 15 19 8 10 - - -
30/08:30pm - - - - - NW 13 15 7 8 - - -
30/08:00pm - - - - - WNW 11 13 6 7 - - -
30/07:30pm - - - - - NW 9 11 5 6 - - -
30/07:00pm - - - - - N 13 19 7 10 - - -
30/06:30pm - - - - - N 19 24 10 13 - - -
30/06:00pm - - - - - N 17 22 9 12 - - -
30/05:30pm - - - - - N 22 28 12 15 - - -
30/05:00pm - - - - - N 28 39 15 21 - - -
30/04:30pm - - - - - NNE 24 32 13 17 - - -
30/04:00pm - - - - - NNE 30 37 16 20 - - -
30/03:30pm - - - - - NNE 28 35 15 19 - - -
30/03:00pm - - - - - NNE 32 41 17 22 - - -
30/02:30pm - - - - - NNE 33 48 18 26 - - -
30/02:00pm - - - - - N 30 37 16 20 - - -
30/01:30pm - - - - - N 37 46 20 25 - - -
30/01:00pm - - - - - N 28 35 15 19 - - -
30/12:34pm - - - - - N 32 50 17 27 - - -
30/12:30pm - - - - - N 33 50 18 27 - - -
30/12:00pm - - - - - N 32 39 17 21 - - -
30/11:35am - - - - - N 11 39 6 21 - - -
30/11:30am - - - - - N 6 9 3 5 - - -
30/11:00am - - - - - CALM 0 0 0 0 - - -
30/10:30am - - - - - NW 6 7 3 4 - - -
30/10:00am - - - - - NE 9 13 5 7 - - -
30/09:30am - - - - - NE 9 13 5 7 - - -
30/09:00am - - - - - ENE 13 17 7 9 - - -
30/08:30am - - - - - E 13 19 7 10 - - -
30/08:00am - - - - - ESE 11 17 6 9 - - -
30/07:30am - - - - - ESE 13 19 7 10 - - -
30/07:00am - - - - - E 13 17 7 9 - - -
30/06:30am - - - - - E 15 20 8 11 - - -
30/06:00am - - - - - E 15 19 8 10 - - -
30/05:30am - - - - - E 15 19 8 10 - - -
30/05:00am - - - - - E 13 17 7 9 - - -
30/04:30am - - - - - E 13 17 7 9 - - -
30/04:00am - - - - - E 15 22 8 12 - - -
30/03:30am - - - - - ESE 13 17 7 9 - - -
30/03:00am - - - - - ESE 13 17 7 9 - - -
30/02:30am - - - - - ESE 13 15 7 8 - - -
30/02:00am - - - - - ESE 13 15 7 8 - - -
30/01:30am - - - - - ESE 13 17 7 9 - - -
30/01:00am - - - - - ESE 13 15 7 8 - - -
30/12:30am - - - - - ESE 13 15 7 8 - - -
30/12:00am - - - - - ESE 11 15 6 8 - - -
 
Date/Time
EST
Temp
°C
App
Temp
°C
Dew
Point
°C
Rel
Hum
%
Delta-T
°C
Wind Press
QNH
hPa
Press
MSL
hPa
Rain since
9am
mm
Dir  Spd
km/h
Gust
km/h
Spd
kts
Gust
kts
29/11:30pm - - - - - ESE 11 15 6 8 - - -
29/11:00pm - - - - - ESE 13 15 7 8 - - -

Latest Capital City Observations: Canberra | Sydney | Melbourne | Brisbane | Adelaide | Perth | Hobart | Darwin

Other formats

Comma delimited format used in spreadsheet applications
http://www.bom.gov.au/fwo/IDV60901/IDV60901.94871.axf

JavaScript Object Notation format (JSON) in row-major order
http://www.bom.gov.au/fwo/IDV60901/IDV60901.94871.json

Data quality

Most of these data are generated automatically and are frequently updated. Quality checks on data are not normally performed. It is possible for incorrect values to appear. Refer to information at About Latest Weather Observations and please check the disclaimer before using these data.